createdAt,value
2018-11-22T00:00:25.804Z,934.8
2018-11-22T00:01:25.735Z,934.5
2018-11-22T00:02:25.646Z,934.6
2018-11-22T00:03:25.542Z,934.5
2018-11-22T00:05:54.872Z,934.8
2018-11-22T00:06:54.803Z,934.8
2018-11-22T00:07:54.708Z,934.8
2018-11-22T00:08:54.622Z,934.9
2018-11-22T00:09:54.531Z,934.8
2018-11-22T00:10:54.856Z,934.8
2018-11-22T00:11:54.783Z,934.8
2018-11-22T00:12:54.684Z,934.8
2018-11-22T00:13:54.585Z,934.8
2018-11-22T00:14:54.472Z,934.9
2018-11-22T00:15:54.370Z,934.8
2018-11-22T00:16:54.264Z,934.9
2018-11-22T00:17:54.196Z,934.8
2018-11-22T00:18:54.096Z,935
2018-11-22T00:19:53.989Z,935
2018-11-22T00:20:54.292Z,935
2018-11-22T00:21:54.180Z,935
2018-11-22T00:22:54.074Z,935
2018-11-22T00:23:53.977Z,935
2018-11-22T00:24:53.854Z,935
2018-11-22T00:25:53.746Z,935
2018-11-22T00:26:53.643Z,934.9
2018-11-22T00:27:53.553Z,934.8
2018-11-22T00:28:53.459Z,934.9
2018-11-22T00:29:53.364Z,934.9
2018-11-22T00:30:53.768Z,935
2018-11-22T00:31:53.662Z,935
2018-11-22T00:32:53.560Z,935
2018-11-22T00:33:53.466Z,935
2018-11-22T00:34:53.380Z,935.1
2018-11-22T00:35:53.264Z,935
2018-11-22T00:36:53.164Z,935
2018-11-22T00:37:53.047Z,935.1
2018-11-22T00:38:52.962Z,935.2
2018-11-22T00:39:52.884Z,935.1
2018-11-22T00:40:53.207Z,935.2
2018-11-22T00:41:53.092Z,935.1
2018-11-22T00:44:23.990Z,935.1
2018-11-22T00:45:23.914Z,935.1
2018-11-22T00:46:23.808Z,935.1
2018-11-22T00:47:23.695Z,935.1
2018-11-22T00:48:23.579Z,935
2018-11-22T00:49:23.466Z,935.2
2018-11-22T00:50:23.362Z,935.1
2018-11-22T00:51:23.697Z,935.1
2018-11-22T00:52:23.584Z,935.1
2018-11-22T00:53:23.476Z,935.1
2018-11-22T00:54:23.363Z,935.2
2018-11-22T00:56:52.702Z,935.2
2018-11-22T00:57:52.596Z,935.2
2018-11-22T00:58:52.516Z,935.3
2018-11-22T00:59:52.429Z,935.1
2018-11-22T01:00:52.308Z,935.2
2018-11-22T01:01:52.628Z,935.3
2018-11-22T01:02:52.512Z,935.3
2018-11-22T01:03:52.394Z,935.3
2018-11-22T01:04:52.282Z,935.2
2018-11-22T01:05:52.172Z,935.2
2018-11-22T01:06:52.078Z,933.8
2018-11-22T01:07:51.971Z,935.1
2018-11-22T01:08:51.848Z,935.3
2018-11-22T01:09:51.750Z,935.2
2018-11-22T01:10:51.653Z,935.3
2018-11-22T01:11:51.992Z,935.1
2018-11-22T01:12:51.873Z,935.3
2018-11-22T01:13:51.767Z,935.3
2018-11-22T01:14:51.644Z,934.7
2018-11-22T01:15:51.532Z,935.3
2018-11-22T01:16:51.461Z,935.3
2018-11-22T01:17:51.386Z,935.4
2018-11-22T01:18:51.269Z,935.4
2018-11-22T01:19:51.160Z,935.3
2018-11-22T01:20:51.034Z,935.2
2018-11-22T01:21:51.347Z,935.2
2018-11-22T01:22:51.265Z,935.4
2018-11-22T01:23:51.136Z,935.4
2018-11-22T01:24:51.018Z,935.4
2018-11-22T01:25:50.907Z,935.4
2018-11-22T01:26:50.791Z,935.4
2018-11-22T01:27:50.673Z,935.2
2018-11-22T01:28:50.589Z,934.1
2018-11-22T01:29:50.473Z,935.2
2018-11-22T01:30:50.359Z,935.3
2018-11-22T01:31:50.681Z,935.4
2018-11-22T01:32:50.585Z,935.4
2018-11-22T01:33:50.497Z,935.2
2018-11-22T01:34:50.435Z,935.3
2018-11-22T01:35:50.313Z,935.2
2018-11-22T01:36:50.211Z,935.4
2018-11-22T01:37:50.114Z,935.3
2018-11-22T01:38:50.007Z,935.4
2018-11-22T01:39:49.915Z,935.4
2018-11-22T01:40:49.824Z,935.2
2018-11-22T01:41:50.136Z,935.4
2018-11-22T01:42:50.033Z,935.5
2018-11-22T01:43:49.907Z,935.5
2018-11-22T01:44:49.811Z,935.5
2018-11-22T01:45:49.725Z,935.4
2018-11-22T01:46:49.598Z,935.4
2018-11-22T01:47:49.479Z,935.3
2018-11-22T01:48:49.362Z,935.5
2018-11-22T01:49:49.249Z,935.5
2018-11-22T01:50:49.153Z,935.4
2018-11-22T01:51:49.456Z,935.4
2018-11-22T01:52:49.358Z,935.4
2018-11-22T01:53:49.252Z,935.5
2018-11-22T01:54:49.147Z,935.4
2018-11-22T01:55:49.069Z,935.5
2018-11-22T01:56:48.947Z,935.4
2018-11-22T01:57:48.831Z,935.4
2018-11-22T01:58:48.739Z,935.3
2018-11-22T01:59:48.645Z,933.4
2018-11-22T02:00:48.541Z,935.4
2018-11-22T02:01:48.871Z,935.5
2018-11-22T02:02:48.773Z,935.4
2018-11-22T02:03:48.659Z,935.4
2018-11-22T02:04:48.546Z,935.2
2018-11-22T02:05:48.431Z,935.4
2018-11-22T02:06:48.344Z,935.3
2018-11-22T02:07:48.227Z,935.4
2018-11-22T02:08:48.128Z,935.3
2018-11-22T02:09:48.011Z,935.4
2018-11-22T02:10:47.886Z,935.2
2018-11-22T02:11:48.204Z,935.2
2018-11-22T02:12:47.951Z,935.4
2018-11-22T02:13:47.703Z,935.4
2018-11-22T02:14:47.425Z,935.3
2018-11-22T02:15:47.167Z,935.5
2018-11-22T02:16:46.895Z,935.2
2018-11-22T02:17:46.682Z,935.5
2018-11-22T02:18:46.410Z,935.4
2018-11-22T02:19:46.141Z,935.4
2018-11-22T02:20:45.881Z,935.3
2018-11-22T02:21:46.201Z,935.5
2018-11-22T02:22:46.125Z,935.3
2018-11-22T02:23:46.035Z,934.5
2018-11-22T02:24:45.927Z,935.2
2018-11-22T02:25:45.805Z,935.4
2018-11-22T02:26:45.708Z,935.4
2018-11-22T02:27:45.607Z,935.4
2018-11-22T02:28:45.526Z,935.5
2018-11-22T02:29:45.414Z,935.5
2018-11-22T02:30:45.308Z,935.4
2018-11-22T02:31:45.625Z,935.4
2018-11-22T02:32:45.369Z,935.3
2018-11-22T02:33:45.109Z,935.3
2018-11-22T02:34:44.871Z,935.3
2018-11-22T02:35:44.597Z,935.5
2018-11-22T02:36:44.337Z,935.4
2018-11-22T02:37:44.063Z,935.3
2018-11-22T02:38:43.786Z,933.8
2018-11-22T02:39:43.517Z,935.5
2018-11-22T02:40:43.253Z,935.4
2018-11-22T02:41:43.581Z,935.3
2018-11-22T02:42:43.475Z,935.3
2018-11-22T02:43:43.410Z,935.6
2018-11-22T02:44:43.306Z,935.5
2018-11-22T02:45:43.201Z,935.3
2018-11-22T02:46:43.099Z,935.4
2018-11-22T02:47:42.994Z,935.5
2018-11-22T02:48:42.884Z,935.5
2018-11-22T02:49:42.785Z,935.5
2018-11-22T02:50:42.704Z,935.5
2018-11-22T02:51:43.020Z,935.5
2018-11-22T02:52:42.925Z,935.6
2018-11-22T02:53:42.820Z,935.5
2018-11-22T02:54:42.720Z,935.5
2018-11-22T02:55:42.618Z,935.5
2018-11-22T02:56:42.536Z,935.5
2018-11-22T02:57:42.424Z,935.5
2018-11-22T02:58:42.317Z,935.4
2018-11-22T02:59:42.198Z,935.4
2018-11-22T03:00:42.100Z,935.5
2018-11-22T03:01:42.251Z,935.4
2018-11-22T03:02:41.986Z,935.5
2018-11-22T03:03:41.712Z,935.5
2018-11-22T03:04:41.444Z,935.5
2018-11-22T03:05:41.183Z,935.4
2018-11-22T03:06:40.913Z,935.5
2018-11-22T03:07:40.658Z,935.5
2018-11-22T03:08:40.386Z,935.6
2018-11-22T03:09:40.106Z,935.6
2018-11-22T03:10:39.842Z,935.6
2018-11-22T03:11:39.988Z,935.4
2018-11-22T03:12:39.718Z,935.6
2018-11-22T03:13:39.458Z,935.5
2018-11-22T03:14:39.194Z,935.5
2018-11-22T03:15:38.923Z,935.6
2018-11-22T03:16:38.651Z,935.6
2018-11-22T03:17:38.404Z,935
2018-11-22T03:18:38.178Z,935.6
2018-11-22T03:19:37.918Z,935.6
2018-11-22T03:20:37.653Z,935.5
2018-11-22T03:21:37.866Z,935.5
2018-11-22T03:22:37.602Z,935.4
2018-11-22T03:23:37.328Z,935.6
2018-11-22T03:24:37.070Z,935.6
2018-11-22T03:25:36.805Z,935.5
2018-11-22T03:26:36.525Z,935.5
2018-11-22T03:27:36.255Z,935.6
2018-11-22T03:28:35.997Z,935.6
2018-11-22T03:29:35.748Z,935.6
2018-11-22T03:30:35.484Z,935.7
2018-11-22T03:31:35.680Z,935.6
2018-11-22T03:32:35.428Z,935.5
2018-11-22T03:33:35.149Z,935.6
2018-11-22T03:34:34.876Z,935.6
2018-11-22T03:35:34.611Z,935.5
2018-11-22T03:36:34.325Z,935.5
2018-11-22T03:37:34.052Z,935.6
2018-11-22T03:38:33.798Z,935.6
2018-11-22T03:39:33.516Z,935.4
2018-11-22T03:40:33.268Z,935.6
2018-11-22T03:41:33.605Z,935.5
2018-11-22T03:42:33.488Z,935.6
2018-11-22T03:43:33.389Z,935.7
2018-11-22T03:44:33.274Z,935.6
2018-11-22T03:45:33.167Z,935.6
2018-11-22T03:46:33.070Z,935.2
2018-11-22T03:47:32.958Z,935.5
2018-11-22T03:48:32.892Z,935.6
2018-11-22T03:49:32.794Z,935.7
2018-11-22T03:50:32.704Z,935.6
2018-11-22T03:51:33.046Z,935.6
2018-11-22T03:52:32.940Z,935.6
2018-11-22T03:53:32.838Z,935.6
2018-11-22T03:54:32.728Z,935.7
2018-11-22T03:55:32.621Z,935.6
2018-11-22T03:56:32.519Z,935.7
2018-11-22T03:57:32.433Z,935.7
2018-11-22T03:58:32.364Z,935.7
2018-11-22T03:59:32.261Z,935.7
2018-11-22T04:00:32.150Z,935.7
2018-11-22T04:01:32.480Z,935.7
2018-11-22T04:02:32.398Z,935.7
2018-11-22T04:03:32.299Z,935.7
2018-11-22T04:04:32.182Z,935.7
2018-11-22T04:05:32.079Z,935.6
2018-11-22T04:06:31.972Z,935.1
2018-11-22T04:07:31.854Z,935.6
2018-11-22T04:08:31.793Z,934.8
2018-11-22T04:09:31.740Z,935.7
2018-11-22T04:10:31.638Z,935.7
2018-11-22T04:11:32.007Z,935
2018-11-22T04:12:31.906Z,935.5
2018-11-22T04:13:31.827Z,935.7
2018-11-22T04:14:31.729Z,935.8
2018-11-22T04:15:31.643Z,935.7
2018-11-22T04:16:31.563Z,935.6
2018-11-22T04:17:31.456Z,935.7
2018-11-22T04:18:31.348Z,935.6
2018-11-22T04:19:31.261Z,935.6
2018-11-22T04:20:31.157Z,935.6
2018-11-22T04:21:31.497Z,935.6
2018-11-22T04:22:31.394Z,935.7
2018-11-22T04:23:31.313Z,935.6
2018-11-22T04:24:31.233Z,935.6
2018-11-22T04:25:31.114Z,935.7
2018-11-22T04:26:30.995Z,935.6
2018-11-22T04:27:30.898Z,935.6
2018-11-22T04:28:30.826Z,935.6
2018-11-22T04:29:30.719Z,935.5
2018-11-22T04:30:30.615Z,935.7
2018-11-22T04:31:30.959Z,935.6
2018-11-22T04:32:30.857Z,935.5
2018-11-22T04:33:30.769Z,935.5
2018-11-22T04:34:30.659Z,935.6
2018-11-22T04:35:31.802Z,935.6
2018-11-22T04:36:31.698Z,935.6
2018-11-22T04:37:31.599Z,935.6
2018-11-22T04:38:31.504Z,935.5
2018-11-22T04:39:31.386Z,935.6
2018-11-22T04:40:31.284Z,935.6
2018-11-22T04:41:31.423Z,935.6
2018-11-22T04:42:31.145Z,935.6
2018-11-22T04:43:30.890Z,935.3
2018-11-22T04:44:30.634Z,935.5
2018-11-22T04:45:30.374Z,935.4
2018-11-22T04:46:30.097Z,935.5
2018-11-22T04:47:29.840Z,935.5
2018-11-22T04:48:29.568Z,935.4
2018-11-22T04:49:29.308Z,935.5
2018-11-22T04:50:29.060Z,935.5
2018-11-22T04:51:29.358Z,935.5
2018-11-22T04:52:29.250Z,935.5
2018-11-22T04:53:29.142Z,935.5
2018-11-22T04:54:29.027Z,935.4
2018-11-22T04:55:28.924Z,935.4
2018-11-22T04:56:28.837Z,935.5
2018-11-22T04:57:28.718Z,935.3
2018-11-22T04:58:28.627Z,935.2
2018-11-22T04:59:28.532Z,935.4
2018-11-22T05:00:28.433Z,935.2
2018-11-22T05:01:28.759Z,935.4
2018-11-22T05:02:28.669Z,935.5
2018-11-22T05:03:28.571Z,935.4
2018-11-22T05:04:31.580Z,935.5
2018-11-22T05:05:31.473Z,935.5
2018-11-22T05:06:31.355Z,935.4
2018-11-22T05:07:31.281Z,935.5
2018-11-22T05:08:31.195Z,935.5
2018-11-22T05:09:31.112Z,935.5
2018-11-22T05:10:31.010Z,935.4
2018-11-22T05:11:31.348Z,935.5
2018-11-22T05:12:31.233Z,935.5
2018-11-22T05:13:31.139Z,935.6
2018-11-22T05:14:31.024Z,935.5
2018-11-22T05:15:30.909Z,935.4
2018-11-22T05:16:30.803Z,935.5
2018-11-22T05:17:30.681Z,935.4
2018-11-22T05:18:30.601Z,935.5
2018-11-22T05:19:30.485Z,935.3
2018-11-22T05:20:30.375Z,935.5
2018-11-22T05:21:30.689Z,935.4
2018-11-22T05:22:30.600Z,935.5
2018-11-22T05:23:31.317Z,935.5
2018-11-22T05:24:31.229Z,935.5
2018-11-22T05:25:31.127Z,935.5
2018-11-22T05:26:31.019Z,935.5
2018-11-22T05:27:30.929Z,935.5
2018-11-22T05:28:30.838Z,935.5
2018-11-22T05:29:30.767Z,935.4
2018-11-22T05:30:30.666Z,935.4
2018-11-22T05:31:30.867Z,935.5
2018-11-22T05:32:35.914Z,935.4
2018-11-22T05:33:35.646Z,935.5
2018-11-22T05:34:35.406Z,935.5
2018-11-22T05:35:35.137Z,935.5
2018-11-22T05:36:34.873Z,935.5
2018-11-22T05:37:34.609Z,935.4
2018-11-22T05:38:34.333Z,935.6
2018-11-22T05:39:34.058Z,935.6
2018-11-22T05:40:33.797Z,935.6
2018-11-22T05:41:34.145Z,935.6
2018-11-22T05:42:34.049Z,935.6
2018-11-22T05:43:33.935Z,935.5
2018-11-22T05:44:33.831Z,935.5
2018-11-22T05:45:33.747Z,935.7
2018-11-22T05:46:33.636Z,935.5
2018-11-22T05:47:33.533Z,935.6
2018-11-22T05:48:33.424Z,935.6
2018-11-22T05:49:33.294Z,935.6
2018-11-22T05:50:33.187Z,935.6
2018-11-22T05:51:33.510Z,935.6
2018-11-22T05:52:33.415Z,935.5
2018-11-22T05:53:33.305Z,935.6
2018-11-22T05:54:33.200Z,935.5
2018-11-22T05:55:33.087Z,935.5
2018-11-22T05:56:32.995Z,935.5
2018-11-22T05:57:32.881Z,935.6
2018-11-22T05:58:32.804Z,935.4
2018-11-22T05:59:32.694Z,935.6
2018-11-22T06:00:32.585Z,935.5
2018-11-22T06:01:32.955Z,935.7
2018-11-22T06:02:32.861Z,935.6
2018-11-22T06:03:32.751Z,935.6
2018-11-22T06:04:32.633Z,935.5
2018-11-22T06:05:32.531Z,935.7
2018-11-22T06:06:32.423Z,935.7
2018-11-22T06:07:32.357Z,935.7
2018-11-22T06:08:32.261Z,935.5
2018-11-22T06:09:32.167Z,935.7
2018-11-22T06:10:32.046Z,935.7
2018-11-22T06:11:32.369Z,935.5
2018-11-22T06:12:32.289Z,935.6
2018-11-22T06:13:32.197Z,935.6
2018-11-22T06:14:32.101Z,934.7
2018-11-22T06:15:31.997Z,935.6
2018-11-22T06:16:31.901Z,935.4
2018-11-22T06:17:31.827Z,935.7
2018-11-22T06:18:31.765Z,935.7
2018-11-22T06:19:31.665Z,935.7
2018-11-22T06:20:31.553Z,935.7
2018-11-22T06:21:31.858Z,935.7
2018-11-22T06:22:31.753Z,935.7
2018-11-22T06:23:31.665Z,935.7
2018-11-22T06:24:31.548Z,935.6
2018-11-22T06:25:31.449Z,935.5
2018-11-22T06:26:31.345Z,935.5
2018-11-22T06:27:31.247Z,935.5
2018-11-22T06:28:31.157Z,935.6
2018-11-22T06:29:31.059Z,935.5
2018-11-22T06:30:30.953Z,935.6
2018-11-22T06:31:36.551Z,935.7
2018-11-22T06:32:36.437Z,935.6
2018-11-22T06:33:36.338Z,935.7
2018-11-22T06:34:36.219Z,935.6
2018-11-22T06:35:36.125Z,933.7
2018-11-22T06:36:36.002Z,935.7
2018-11-22T06:37:35.909Z,935.7
2018-11-22T06:38:36.016Z,935.7
2018-11-22T06:39:35.917Z,935.8
2018-11-22T06:40:35.821Z,935.7
2018-11-22T06:41:36.131Z,935.7
2018-11-22T06:42:36.021Z,935.7
2018-11-22T06:43:35.919Z,935.7
2018-11-22T06:44:35.833Z,935.7
2018-11-22T06:45:35.765Z,935.7
2018-11-22T06:46:35.659Z,935.7
2018-11-22T06:47:35.551Z,935.8
2018-11-22T06:48:35.432Z,935.8
2018-11-22T06:49:35.329Z,935.9
2018-11-22T06:50:35.227Z,935.9
2018-11-22T06:51:35.533Z,935.8
2018-11-22T06:52:35.431Z,935.8
2018-11-22T06:53:35.325Z,935.8
2018-11-22T06:54:35.195Z,935.9
2018-11-22T06:55:35.101Z,935.9
2018-11-22T06:56:34.989Z,935.9
2018-11-22T06:57:34.941Z,935.7
2018-11-22T06:58:34.839Z,935.8
2018-11-22T06:59:34.737Z,935.8
2018-11-22T07:00:34.616Z,935.9
2018-11-22T07:01:36.045Z,935.8
2018-11-22T07:02:35.927Z,935.8
2018-11-22T07:03:35.821Z,935.8
2018-11-22T07:04:35.715Z,935.7
2018-11-22T07:05:35.640Z,935.7
2018-11-22T07:06:35.560Z,935.8
2018-11-22T07:07:35.447Z,935.8
2018-11-22T07:08:35.326Z,935.8
2018-11-22T07:09:35.214Z,935.7
2018-11-22T07:10:35.125Z,935.7
2018-11-22T07:11:35.463Z,935.9
2018-11-22T07:12:35.343Z,935.9
2018-11-22T07:13:35.256Z,935.9
2018-11-22T07:14:35.135Z,935.9
2018-11-22T07:15:35.037Z,935.9
2018-11-22T07:16:34.965Z,935.9
2018-11-22T07:17:34.863Z,935.7
2018-11-22T07:18:34.759Z,935.7
2018-11-22T07:19:34.731Z,935.9
2018-11-22T07:20:34.621Z,935.9
2018-11-22T07:21:34.935Z,935.9
2018-11-22T07:22:34.865Z,935.9
2018-11-22T07:23:34.780Z,935.9
2018-11-22T07:24:34.681Z,935.9
2018-11-22T07:25:34.571Z,936
2018-11-22T07:26:34.456Z,935.9
2018-11-22T07:27:39.127Z,935.8
2018-11-22T07:28:39.028Z,935.7
2018-11-22T07:29:38.911Z,935.9
2018-11-22T07:30:43.261Z,935.1
2018-11-22T07:31:43.618Z,935.9
2018-11-22T07:32:43.538Z,935.9
2018-11-22T07:33:43.443Z,935.9
2018-11-22T07:34:43.333Z,935.8
2018-11-22T07:35:43.225Z,935.9
2018-11-22T07:36:43.123Z,935.9
2018-11-22T07:37:43.010Z,935.9
2018-11-22T07:38:42.937Z,936
2018-11-22T07:39:42.829Z,936
2018-11-22T07:40:42.701Z,935.9
2018-11-22T07:41:43.007Z,935.9
2018-11-22T07:42:42.889Z,936
2018-11-22T07:43:42.783Z,936
2018-11-22T07:44:42.661Z,936
2018-11-22T07:45:42.579Z,936
2018-11-22T07:46:42.463Z,936
2018-11-22T07:47:42.368Z,936
2018-11-22T07:48:42.271Z,936
2018-11-22T07:49:42.155Z,935.9
2018-11-22T07:50:42.049Z,934
2018-11-22T07:51:42.382Z,936
2018-11-22T07:52:42.290Z,936
2018-11-22T07:53:42.191Z,936
2018-11-22T07:54:42.083Z,936
2018-11-22T07:55:41.986Z,935.9
2018-11-22T07:56:41.896Z,935.9
2018-11-22T07:57:41.785Z,936
2018-11-22T07:58:41.712Z,935.9
2018-11-22T07:59:41.610Z,936
2018-11-22T08:00:41.499Z,935.2
2018-11-22T08:01:41.810Z,935.9
2018-11-22T08:02:41.706Z,935.9
2018-11-22T08:03:41.624Z,935.9
2018-11-22T08:04:41.528Z,934.1
2018-11-22T08:05:41.430Z,935.9
2018-11-22T08:06:41.336Z,934.1
2018-11-22T08:07:41.223Z,936
2018-11-22T08:08:41.101Z,936
2018-11-22T08:09:41.005Z,935.9
2018-11-22T08:10:40.897Z,935.9
2018-11-22T08:11:41.238Z,936
2018-11-22T08:12:41.907Z,936
2018-11-22T08:13:41.836Z,936
2018-11-22T08:14:41.757Z,936
2018-11-22T08:15:41.672Z,936
2018-11-22T08:16:41.578Z,936
2018-11-22T08:17:41.481Z,936
2018-11-22T08:18:41.379Z,935.9
2018-11-22T08:19:41.278Z,935.9
2018-11-22T08:20:41.202Z,935.9
2018-11-22T08:21:41.510Z,935.9
2018-11-22T08:22:41.392Z,936
2018-11-22T08:23:41.281Z,935.9
2018-11-22T08:24:41.179Z,936
2018-11-22T08:25:41.096Z,936
2018-11-22T08:26:40.989Z,936
2018-11-22T08:27:40.880Z,936
2018-11-22T08:28:40.768Z,936
2018-11-22T08:29:40.668Z,936.1
2018-11-22T08:30:40.592Z,936.1
2018-11-22T08:31:40.916Z,936.1
2018-11-22T08:32:40.818Z,936
2018-11-22T08:33:40.716Z,936.1
2018-11-22T08:34:40.646Z,936.1
2018-11-22T08:35:40.552Z,936.1
2018-11-22T08:36:40.458Z,936.1
2018-11-22T08:37:40.356Z,936.1
2018-11-22T08:38:40.244Z,936.2
2018-11-22T08:39:40.127Z,936.2
2018-11-22T08:40:40.030Z,936.1
2018-11-22T08:41:40.360Z,936.1
2018-11-22T08:42:40.246Z,934.2
2018-11-22T08:43:40.140Z,936
2018-11-22T08:44:40.045Z,935.9
2018-11-22T08:45:39.951Z,936
2018-11-22T08:46:39.838Z,936.2
2018-11-22T08:47:39.750Z,936
2018-11-22T08:48:39.635Z,936.2
2018-11-22T08:49:39.555Z,936
2018-11-22T08:50:39.455Z,936.2
2018-11-22T08:51:39.784Z,936.1
2018-11-22T08:52:39.722Z,936.2
2018-11-22T08:53:39.636Z,936.2
2018-11-22T08:54:39.533Z,936.1
2018-11-22T08:55:39.428Z,936.2
2018-11-22T08:56:39.332Z,936.2
2018-11-22T08:57:39.245Z,936.2
2018-11-22T08:58:39.153Z,936.2
2018-11-22T08:59:39.060Z,936.2
2018-11-22T09:00:38.968Z,936.2
2018-11-22T09:01:39.346Z,936.2
2018-11-22T09:02:46.130Z,936.2
2018-11-22T09:03:46.042Z,936.2
2018-11-22T09:04:45.934Z,936.1
2018-11-22T09:05:45.808Z,936.1
2018-11-22T09:06:45.702Z,936.3
2018-11-22T09:07:45.603Z,936.2
2018-11-22T09:08:45.507Z,936.1
2018-11-22T09:09:45.426Z,936.1
2018-11-22T09:10:45.319Z,936.2
2018-11-22T09:11:45.662Z,936.2
2018-11-22T09:12:45.395Z,936.2
2018-11-22T09:13:45.128Z,936.3
2018-11-22T09:14:44.876Z,936.3
2018-11-22T09:15:44.598Z,936.3
2018-11-22T09:16:44.318Z,936.2
2018-11-22T09:17:44.058Z,936.2
2018-11-22T09:18:43.786Z,936.3
2018-11-22T09:19:43.510Z,936.3
2018-11-22T09:20:43.248Z,936.1
2018-11-22T09:21:43.564Z,936.2
2018-11-22T09:22:43.465Z,936.2
2018-11-22T09:23:43.360Z,936.3
2018-11-22T09:24:43.252Z,936.4
2018-11-22T09:25:44.303Z,936.2
2018-11-22T09:26:44.194Z,936.4
2018-11-22T09:27:44.090Z,936.3
2018-11-22T09:28:43.976Z,936.4
2018-11-22T09:29:43.874Z,936.4
2018-11-22T09:30:43.806Z,936.4
2018-11-22T09:31:44.150Z,936.3
2018-11-22T09:32:44.050Z,936.2
2018-11-22T09:34:43.808Z,936.5
2018-11-22T09:35:43.729Z,936.5
2018-11-22T09:36:43.641Z,936.5
2018-11-22T09:37:43.536Z,936.5
2018-11-22T09:38:43.444Z,936.4
2018-11-22T09:39:43.336Z,936.5
2018-11-22T09:40:43.228Z,936.5
2018-11-22T09:41:43.580Z,936.5
2018-11-22T09:42:43.478Z,936.4
2018-11-22T09:43:43.378Z,936.4
2018-11-22T09:44:43.253Z,936.4
2018-11-22T09:45:43.135Z,936.4
2018-11-22T09:46:43.044Z,936.5
2018-11-22T09:47:42.962Z,936.4
2018-11-22T09:48:43.600Z,936.5
2018-11-22T09:49:43.538Z,936.4
2018-11-22T09:50:43.503Z,936.4
2018-11-22T09:51:43.842Z,936.3
2018-11-22T09:52:43.734Z,936.4
2018-11-22T09:53:43.622Z,936.4
2018-11-22T09:54:43.498Z,936.4
2018-11-22T09:55:43.374Z,936.2
2018-11-22T09:56:43.252Z,936.5
2018-11-22T09:57:43.147Z,936.4
2018-11-22T09:58:43.030Z,936.5
2018-11-22T09:59:42.967Z,936.4
2018-11-22T10:00:42.855Z,936.4
2018-11-22T10:01:43.167Z,936.4
2018-11-22T10:02:43.066Z,936.4
2018-11-22T10:03:42.948Z,936.4
2018-11-22T10:04:43.490Z,936.5
2018-11-22T10:05:43.847Z,936.4
2018-11-22T10:06:43.815Z,936.4
2018-11-22T10:07:43.733Z,936.3
2018-11-22T10:08:44.536Z,936.4
2018-11-22T10:09:44.467Z,936.4
2018-11-22T10:10:44.353Z,936.3
2018-11-22T10:11:44.689Z,936.4
2018-11-22T10:12:44.673Z,936.3
2018-11-22T10:13:44.406Z,936.3
2018-11-22T10:14:44.135Z,936.3
2018-11-22T10:15:43.857Z,936.3
2018-11-22T10:16:43.591Z,936.4
2018-11-22T10:17:43.341Z,936.2
2018-11-22T10:18:43.589Z,936.3
2018-11-22T10:19:43.449Z,936.2
2018-11-22T10:20:43.183Z,936.2
2018-11-22T10:21:43.333Z,936.2
2018-11-22T10:22:43.093Z,936.2
2018-11-22T10:23:43.104Z,936.2
2018-11-22T10:24:42.878Z,936.3
2018-11-22T10:25:42.609Z,936.3
2018-11-22T10:26:42.335Z,936.2
2018-11-22T10:27:42.077Z,936.3
2018-11-22T10:28:41.821Z,936.3
2018-11-22T10:29:41.557Z,936.3
2018-11-22T10:30:41.283Z,936.3
2018-11-22T10:31:42.186Z,936.3
2018-11-22T10:32:42.101Z,936.2
2018-11-22T10:33:42.015Z,936.3
2018-11-22T10:34:41.903Z,936.1
2018-11-22T10:35:41.838Z,934.6
2018-11-22T10:36:41.733Z,936.3
2018-11-22T10:37:42.105Z,936.4
2018-11-22T10:38:42.077Z,936.3
2018-11-22T10:39:41.989Z,936.4
2018-11-22T10:40:42.059Z,936.3
2018-11-22T10:41:42.370Z,936.3
2018-11-22T10:42:43.143Z,936.3
2018-11-22T10:43:43.153Z,936.2
2018-11-22T10:44:43.031Z,936.3
2018-11-22T10:45:42.945Z,936.2
2018-11-22T10:46:42.867Z,936.2
2018-11-22T10:47:42.801Z,936.1
2018-11-22T10:48:42.686Z,936.3
2018-11-22T10:49:42.603Z,936.3
2018-11-22T10:50:42.491Z,936.3
2018-11-22T10:51:42.819Z,936.2
2018-11-22T10:52:42.723Z,936.1
2018-11-22T10:53:42.633Z,936.2
2018-11-22T10:54:42.529Z,936.2
2018-11-22T10:55:42.449Z,936.1
2018-11-22T10:56:42.343Z,936.1
2018-11-22T10:57:42.236Z,936.2
2018-11-22T10:58:42.123Z,936.1
2018-11-22T10:59:42.015Z,936.2
2018-11-22T11:00:41.928Z,936.1
2018-11-22T11:01:42.223Z,936.1
2018-11-22T11:02:42.117Z,936.1
2018-11-22T11:03:42.031Z,936.1
2018-11-22T11:04:44.297Z,936.2
2018-11-22T11:05:44.205Z,936.1
2018-11-22T11:06:44.093Z,936.1
2018-11-22T11:07:43.993Z,936.1
2018-11-22T11:08:43.889Z,936.1
2018-11-22T11:09:43.800Z,936.1
2018-11-22T11:10:43.713Z,936.2
2018-11-22T11:11:44.063Z,936.2
2018-11-22T11:12:43.971Z,936.2
2018-11-22T11:13:43.855Z,936.1
2018-11-22T11:14:43.735Z,936.2
2018-11-22T11:15:43.651Z,936.2
2018-11-22T11:16:43.555Z,936.1
2018-11-22T11:17:43.489Z,936.2
2018-11-22T11:18:43.401Z,936.1
2018-11-22T11:19:43.329Z,936.1
2018-11-22T11:20:43.234Z,936.1
2018-11-22T11:21:43.608Z,936.2
2018-11-22T11:22:43.446Z,936.2
2018-11-22T11:23:43.180Z,936.3
2018-11-22T11:24:44.219Z,936.2
2018-11-22T11:25:44.002Z,936.3
2018-11-22T11:26:43.742Z,936.2
2018-11-22T11:27:43.466Z,936.3
2018-11-22T11:28:43.203Z,936.2
2018-11-22T11:29:42.936Z,936.2
2018-11-22T11:30:42.664Z,936.2
2018-11-22T11:31:43.013Z,936.2
2018-11-22T11:32:42.908Z,936
2018-11-22T11:33:42.800Z,936.2
2018-11-22T11:34:42.688Z,936.2
2018-11-22T11:35:42.617Z,936.2
2018-11-22T11:36:42.531Z,936.2
2018-11-22T11:37:42.449Z,936.2
2018-11-22T11:38:42.343Z,936.1
2018-11-22T11:39:42.224Z,936.1
2018-11-22T11:40:42.113Z,936.1
2018-11-22T11:41:42.470Z,936.2
2018-11-22T11:42:42.385Z,936.2
2018-11-22T11:43:42.276Z,936.2
2018-11-22T11:44:42.182Z,934.4
2018-11-22T11:45:42.080Z,936.1
2018-11-22T11:46:41.961Z,936.2
2018-11-22T11:47:41.855Z,936.1
2018-11-22T11:48:41.776Z,936
2018-11-22T11:49:41.682Z,936
2018-11-22T11:50:41.572Z,936.1
2018-11-22T11:51:41.879Z,936
2018-11-22T11:52:41.758Z,936
2018-11-22T11:53:42.600Z,936.1
2018-11-22T11:54:42.482Z,936.1
2018-11-22T11:55:42.387Z,936
2018-11-22T11:56:42.286Z,936.1
2018-11-22T11:57:42.179Z,936
2018-11-22T11:58:42.096Z,936.1
2018-11-22T11:59:41.976Z,936.1
2018-11-22T12:00:41.864Z,935.9
2018-11-22T12:01:42.162Z,936
2018-11-22T12:02:42.060Z,936
2018-11-22T12:03:41.942Z,936
2018-11-22T12:04:41.882Z,935.9
2018-11-22T12:05:41.832Z,936
2018-11-22T12:06:41.727Z,936
2018-11-22T12:07:42.711Z,935.3
2018-11-22T12:08:42.596Z,936
2018-11-22T12:09:42.518Z,936
2018-11-22T12:10:42.600Z,936
2018-11-22T12:11:42.974Z,934.7
2018-11-22T12:12:43.090Z,935.9
2018-11-22T12:13:42.977Z,935.8
2018-11-22T12:14:42.870Z,936
2018-11-22T12:15:42.770Z,935.9
2018-11-22T12:16:42.667Z,935.9
2018-11-22T12:17:42.556Z,936
2018-11-22T12:18:42.489Z,936
2018-11-22T12:19:42.391Z,936
2018-11-22T12:20:42.332Z,935.9
2018-11-22T12:21:42.673Z,936
2018-11-22T12:22:42.588Z,936
2018-11-22T12:23:42.479Z,935.9
2018-11-22T12:24:42.373Z,935.9
2018-11-22T12:25:42.287Z,935.9
2018-11-22T12:26:42.177Z,935.9
2018-11-22T12:27:42.089Z,936
2018-11-22T12:28:41.990Z,935.9
2018-11-22T12:29:41.899Z,935.9
2018-11-22T12:30:41.823Z,935.9
2018-11-22T12:31:42.157Z,935.9
2018-11-22T12:32:42.089Z,935.8
2018-11-22T12:33:42.004Z,935.9
2018-11-22T12:34:41.921Z,935.9
2018-11-22T12:35:41.854Z,935.9
2018-11-22T12:36:41.782Z,935.9
2018-11-22T12:37:44.233Z,935.9
2018-11-22T12:38:44.134Z,935.9
2018-11-22T12:39:44.025Z,935.8
2018-11-22T12:40:43.943Z,935.9
2018-11-22T12:41:44.261Z,935.9
2018-11-22T12:42:44.141Z,935.9
2018-11-22T12:43:44.045Z,936
2018-11-22T12:44:43.969Z,935.9
2018-11-22T12:45:43.917Z,935.9
2018-11-22T12:46:43.812Z,935.7
2018-11-22T12:47:43.723Z,935.8
2018-11-22T12:48:43.613Z,935.9
2018-11-22T12:49:43.524Z,935.7
2018-11-22T12:50:43.443Z,935.8
2018-11-22T12:51:43.597Z,935.9
2018-11-22T12:52:43.331Z,935.9
2018-11-22T12:53:43.065Z,935.8
2018-11-22T12:54:42.797Z,935.8
2018-11-22T12:55:42.538Z,935.7
2018-11-22T12:56:42.325Z,935.8
2018-11-22T12:57:42.077Z,935.8
2018-11-22T12:58:41.805Z,935.8
2018-11-22T12:59:41.556Z,935.7
2018-11-22T13:00:41.320Z,935.8
2018-11-22T13:01:41.654Z,935.8
2018-11-22T13:02:42.699Z,935.8